Latest Weather Observations for Mildura

IDN60801

Issued at 8:05 am EDT Friday 24 October 2014 (issued every 30 minutes, with the page automatically refreshed every 10 minutes)

About weather observations | Map of weather stations | Latest weather observations for NSW | Other Formats
Station Details ID: 076031 Name: MILDURA AIRPORT Lat: -34.24 Lon: 142.09 Height: 50.0 m
Data from the previous 72 hours. | See also: Recent months at Mildura
Date/Time
EDT
Temp
°C
App
Temp
°C
Dew
Point
Rel
Hum
%
Delta-T
°C
Wind Press
QNH
hPa
Press
MSL
hPa
Rain
since 9 am
mm
Dir
 
Spd
km/h
Gust
km/h
Spd
kts
Gust
kts
24/08:00am 16.8 15.1 11.3 70 3.0 W 11 15 6 8 1014.2 1014.2 0.0
24/07:30am 15.5 15.3 10.5 72 2.6 ENE 2 6 1 3 1013.4 1013.4 0.0
24/07:00am 15.3 14.4 10.5 73 2.5 WNW 6 9 3 5 1013.0 1013.0 0.0
24/06:30am 15.2 15.3 10.0 71 2.7 CALM 0 0 0 0 1012.7 1012.7 0.0
24/06:00am 15.7 14.6 10.5 71 2.8 WNW 7 9 4 5 1012.9 1012.9 0.0
24/05:30am 16.2 14.6 10.3 68 3.1 W 9 11 5 6 1013.1 1013.1 0.0
24/05:00am 16.5 14.9 10.1 66 3.4 W 9 11 5 6 1012.9 1012.9 0.0
24/04:30am 16.8 15.5 10.0 64 3.6 W 7 9 4 5 1012.6 1012.5 0.0
24/04:00am 17.5 16.4 9.9 61 4.0 WNW 6 7 3 4 1012.7 1012.7 0.0
24/03:30am 18.3 16.7 10.2 59 4.3 W 9 11 5 6 1012.8 1012.8 0.0
24/03:00am 19.4 17.8 10.1 55 5.0 SW 9 11 5 6 1012.7 1012.7 0.0
24/02:30am 20.4 19.1 9.9 51 5.6 SW 7 11 4 6 1012.9 1012.9 0.0
24/02:00am 21.3 19.6 9.9 48 6.2 SSW 9 11 5 6 1012.9 1012.9 0.0
24/01:30am 22.0 20.1 9.2 44 6.9 SSW 9 11 5 6 1013.1 1013.1 0.0
24/01:00am 23.0 20.7 9.0 41 7.5 SSW 11 17 6 9 1013.3 1013.3 0.0
24/12:30am 23.8 20.9 8.2 37 8.3 SSW 13 19 7 10 1013.4 1013.4 0.0
24/12:00am 24.5 21.1 7.6 34 8.9 SW 15 24 8 13 1013.5 1013.5 0.0
 
Date/Time
EDT
Temp
°C
App
Temp
°C
Dew
Point
Rel
Hum
%
Delta-T
°C
Wind Press
QNH
hPa
Press
MSL
hPa
Rain
since 9 am
mm
Dir
 
Spd
km/h
Gust
km/h
Spd
kts
Gust
kts
23/11:30pm 25.8 22.5 6.4 29 10.1 SW 13 22 7 12 1013.5 1013.5 0.0
23/11:00pm 25.2 22.4 6.9 31 9.6 WSW 11 17 6 9 1013.4 1013.4 0.0
23/10:30pm 24.1 21.9 7.7 35 8.7 W 9 11 5 6 1013.3 1013.3 0.0
23/10:00pm 25.6 23.0 7.7 32 9.5 W 11 15 6 8 1013.1 1013.1 0.0
23/09:30pm 26.1 23.9 7.7 31 9.8 W 9 13 5 7 1012.9 1012.9 0.0
23/09:00pm 26.7 24.0 7.2 29 10.4 W 11 15 6 8 1012.6 1012.5 0.0
23/08:30pm 28.2 25.6 6.3 25 11.6 WNW 9 13 5 7 1012.2 1012.1 0.0
23/08:00pm 29.0 27.0 6.4 24 12.0 W 6 7 3 4 1011.9 1011.8 0.0
23/07:30pm 30.9 27.5 6.0 21 13.3 W 13 17 7 9 1011.7 1011.6 0.0
23/07:00pm 32.2 28.8 5.7 19 14.2 W 13 20 7 11 1011.3 1011.2 0.0
23/06:30pm 33.0 29.5 5.5 18 14.7 W 13 20 7 11 1011.0 1010.9 0.0
23/06:00pm 33.7 30.3 6.1 18 15.0 WNW 13 19 7 10 1011.0 1010.9 0.0
23/05:30pm 33.7 30.0 4.4 16 15.4 WNW 13 19 7 10 1011.0 1010.9 0.0
23/05:00pm 33.5 30.1 5.9 18 14.9 W 13 20 7 11 1011.2 1011.1 0.0
23/04:30pm 33.2 29.9 6.5 19 14.5 W 13 22 7 12 1011.3 1011.2 0.0
23/04:00pm 32.8 29.5 6.2 19 14.4 WNW 13 24 7 13 1011.8 1011.7 0.0
23/03:30pm 32.6 29.5 8.8 23 13.4 WNW 15 26 8 14 1012.1 1012.0 0.0
23/03:00pm 32.2 29.5 9.1 24 13.0 WNW 13 24 7 13 1012.6 1012.5 0.0
23/02:30pm 30.7 27.3 9.0 26 12.1 WNW 17 28 9 15 1013.0 1013.0 0.0
23/02:00pm 29.9 27.5 9.9 29 11.3 WNW 13 22 7 12 1013.3 1013.3 0.0
23/01:30pm 29.3 26.9 9.9 30 10.9 W 13 20 7 11 1014.0 1014.0 0.0
23/01:00pm 28.2 26.5 9.9 32 10.3 SW 9 19 5 10 1014.2 1014.2 0.0
23/12:30pm 27.2 25.0 9.5 33 9.8 W 11 19 6 10 1014.6 1014.6 0.0
23/12:00pm 25.4 23.9 10.4 39 8.4 W 9 19 5 10 1015.1 1015.1 0.0
23/11:30am 24.1 22.2 10.4 42 7.6 WSW 11 17 6 9 1015.3 1015.3 0.0
23/11:00am 23.4 22.0 10.8 45 7.0 SW 9 15 5 8 1015.7 1015.7 0.0
23/10:30am 21.7 19.9 10.8 50 6.0 SSW 11 19 6 10 1015.8 1015.8 0.0
23/10:00am 20.6 18.6 11.5 56 5.0 WSW 13 20 7 11 1015.9 1015.9 0.0
23/09:30am 19.9 17.9 11.4 58 4.7 SW 13 20 7 11 1016.0 1016.0 0.0
23/09:00am 18.5 16.4 11.3 63 3.9 SW 13 19 7 10 1015.8 1015.8 0.0
23/08:30am 17.6 15.1 11.2 66 3.5 SW 15 24 8 13 1015.7 1015.7 0.0
23/08:00am 16.1 14.0 11.3 73 2.6 WSW 13 20 7 11 1015.5 1015.5 0.0
23/07:30am 14.7 12.6 11.1 79 1.9 W 13 20 7 11 1015.3 1015.3 0.0
23/07:00am 14.1 12.0 11.3 83 1.5 WNW 13 19 7 10 1015.0 1015.0 0.0
23/06:30am 14.2 12.5 11.2 82 1.6 W 11 13 6 7 1014.6 1014.6 0.0
23/06:00am 14.7 13.1 11.5 81 1.7 W 11 15 6 8 1014.2 1014.2 0.0
23/05:30am 15.2 13.2 11.6 79 1.9 W 13 22 7 12 1013.9 1013.9 0.0
23/05:00am 15.7 13.4 11.7 77 2.2 W 15 20 8 11 1013.8 1013.8 0.0
23/04:30am 16.5 14.6 11.9 74 2.5 W 13 19 7 10 1013.6 1013.6 0.0
23/04:00am 17.2 15.3 11.9 71 2.9 W 13 20 7 11 1013.4 1013.4 0.0
23/03:30am 18.0 16.1 11.8 67 3.4 W 13 19 7 10 1014.0 1014.0 0.0
23/03:00am 18.8 16.6 12.1 65 3.7 W 15 22 8 12 1014.2 1014.2 0.0
23/02:30am 19.7 17.1 12.0 61 4.3 W 17 22 9 12 1014.2 1014.2 0.0
23/02:00am 20.8 18.2 12.0 57 4.9 W 17 24 9 13 1014.2 1014.2 0.0
23/01:30am 22.2 19.9 11.9 52 5.8 W 15 22 8 12 1014.1 1014.1 0.0
23/01:00am 23.6 20.9 11.6 47 6.8 W 17 24 9 13 1014.4 1014.4 0.0
23/12:30am 25.5 22.7 10.1 38 8.5 W 15 20 8 11 1014.7 1014.7 0.0
23/12:00am 27.1 23.7 9.0 32 9.9 WNW 17 24 9 13 1014.7 1014.7 0.0
 
Date/Time
EDT
Temp
°C
App
Temp
°C
Dew
Point
Rel
Hum
%
Delta-T
°C
Wind Press
QNH
hPa
Press
MSL
hPa
Rain
since 9 am
mm
Dir
 
Spd
km/h
Gust
km/h
Spd
kts
Gust
kts
22/11:30pm 28.3 25.0 6.4 25 11.6 W 13 24 7 13 1014.8 1014.8 0.0
22/11:00pm 29.1 25.5 5.2 22 12.4 W 13 20 7 11 1014.7 1014.7 0.0
22/10:30pm 29.6 26.1 5.6 22 12.6 SW 13 20 7 11 1014.2 1014.2 0.0
22/10:00pm 30.5 26.8 6.4 22 12.9 S 15 26 8 14 1014.0 1014.0 0.0
22/09:30pm 31.1 28.1 6.2 21 13.3 W 11 19 6 10 1014.4 1014.4 0.0
22/09:00pm 32.2 29.4 2.3 15 15.1 W 6 13 3 7 1013.7 1013.7 0.0
22/08:30pm 32.1 29.3 3.1 16 14.8 NNW 7 9 4 5 1013.3 1013.3 0.0
22/08:00pm 31.6 29.1 3.6 17 14.4 N 6 9 3 5 1012.9 1012.9 0.0
22/07:30pm 32.5 30.7 3.5 16 15.0 ENE 2 7 1 4 1012.8 1012.8 0.0
22/07:00pm 33.4 30.9 5.0 17 15.1 E 7 11 4 6 1012.5 1012.4 0.0
22/06:30pm 35.5 31.3 1.8 12 17.2 E 13 17 7 9 1012.4 1012.3 0.0
22/06:00pm 35.7 31.4 0.7 11 17.6 E 13 20 7 11 1012.5 1012.4 0.0
22/05:30pm 36.8 33.1 0.2 10 18.4 E 9 19 5 10 1012.6 1012.5 0.0
22/05:00pm 36.0 30.7 -0.4 10 18.0 S 17 28 9 15 1012.9 1012.9 0.0
22/04:30pm 37.2 31.9 -0.9 9 18.8 W 17 26 9 14 1013.2 1013.2 0.0
22/04:00pm 36.9 30.8 -2.7 8 19.0 W 20 35 11 19 1013.5 1013.5 0.0
22/03:30pm 37.1 31.7 -1.0 9 18.8 NNW 17 26 9 14 1013.7 1013.7 0.0
22/03:17pm 37.1 33.3 -1.0 9 18.8 WNW 9 20 5 11 1013.9 1013.9 0.0
22/03:04pm 37.6 33.1 -0.6 9 19.0 W 13 26 7 14 1014.1 1014.1 0.0
22/03:00pm 36.9 32.7 -1.1 9 18.7 W 11 17 6 9 1014.1 1014.1 0.0
22/02:30pm 36.6 32.0 -1.4 9 18.6 WNW 13 26 7 14 1014.5 1014.5 0.0
22/02:00pm 35.6 31.0 -0.7 10 17.8 NW 13 24 7 13 1015.2 1015.2 0.0
22/01:30pm 35.9 31.8 -0.5 10 18.0 NW 11 20 6 11 1015.5 1015.5 0.0
22/01:00pm 34.7 30.0 1.1 12 16.9 NW 15 20 8 11 1016.0 1016.0 0.0
22/12:30pm 34.0 29.4 3.7 15 15.8 NNE 17 24 9 13 1016.5 1016.5 0.0
22/12:00pm 31.3 27.2 4.2 18 14.0 NE 15 20 8 11 1016.7 1016.7 0.0
22/11:30am 31.6 27.2 7.3 22 13.3 NE 20 30 11 16 1016.5 1016.5 0.0
22/11:00am 28.1 25.1 7.9 28 10.9 ENE 13 19 7 10 1017.5 1017.4 0.0
22/10:30am 27.3 23.9 7.7 29 10.5 ENE 15 22 8 12 1018.0 1017.9 0.0
22/10:00am 25.2 22.9 9.1 36 8.7 SE 11 15 6 8 1018.1 1018.0 0.0
22/09:30am 25.3 23.1 7.9 33 9.3 NNE 9 13 5 7 1018.2 1018.1 0.0
22/09:00am 25.3 21.1 8.3 34 9.1 E 20 24 11 13 1016.9 1016.8 0.2
22/08:30am 22.9 20.4 8.2 39 7.8 SSE 11 15 6 8 1017.0 1016.9 -
22/08:00am 22.9 19.9 7.8 38 7.9 ENE 13 19 7 10 1016.5 1016.5 -
22/07:30am 22.3 19.6 7.3 38 7.8 E 11 17 6 9 1016.4 1016.4 -
22/07:00am 22.0 19.3 7.4 39 7.6 E 11 15 6 8 1016.2 1016.2 -
22/06:30am 22.0 19.2 7.0 38 7.7 E 11 13 6 7 1016.3 1016.3 -
22/06:00am 22.5 19.6 6.7 36 8.1 E 11 15 6 8 1016.2 1016.2 -
22/05:30am 23.0 19.8 6.7 35 8.4 E 13 17 7 9 1016.1 1016.1 -
22/05:00am 23.6 20.3 6.4 33 8.8 E 13 17 7 9 1016.0 1016.0 -
22/04:30am 23.8 21.2 6.1 32 9.1 E 9 15 5 8 1016.2 1016.2 -
22/04:00am 24.0 21.0 5.8 31 9.3 E 11 17 6 9 1016.4 1016.4 -
22/03:30am 24.6 21.2 5.9 30 9.6 E 13 19 7 10 1017.0 1016.9 -
22/03:00am 25.8 22.0 5.9 28 10.3 ENE 15 20 8 11 1017.4 1017.3 0.0
22/02:30am 26.6 22.4 5.5 26 10.9 ENE 17 24 9 13 1017.6 1017.5 -
22/02:00am 27.2 22.6 5.5 25 11.2 ENE 19 26 10 14 1018.0 1017.9 -
22/01:30am 27.2 23.7 5.5 25 11.2 ENE 13 22 7 12 1018.4 1018.3 -
22/01:00am 27.2 22.8 4.9 24 11.4 ENE 17 22 9 12 1018.4 1018.3 -
22/12:30am 27.5 23.2 5.1 24 11.5 ENE 17 22 9 12 1018.7 1018.6 -
22/12:00am 27.7 23.7 4.7 23 11.7 E 15 24 8 13 1018.8 1018.7 -
 
Date/Time
EDT
Temp
°C
App
Temp
°C
Dew
Point
Rel
Hum
%
Delta-T
°C
Wind Press
QNH
hPa
Press
MSL
hPa
Rain
since 9 am
mm
Dir
 
Spd
km/h
Gust
km/h
Spd
kts
Gust
kts
21/11:30pm 28.1 23.3 4.4 22 12.1 E 19 24 10 13 1018.9 1018.8 -
21/11:00pm 28.7 23.8 4.2 21 12.5 E 19 28 10 15 1018.8 1018.7 -
21/10:30pm 27.6 23.7 3.3 21 12.1 E 13 22 7 12 1018.8 1018.7 -
21/10:00pm 27.4 23.3 2.5 20 12.2 E 13 19 7 10 1018.7 1018.6 -
21/09:30pm 28.1 24.0 2.3 19 12.7 E 13 19 7 10 1018.5 1018.4 -
21/09:00pm 29.1 24.6 2.4 18 13.2 E 15 20 8 11 1018.3 1018.2 0.0
21/08:30pm 30.4 25.6 2.6 17 13.9 ESE 17 22 9 12 1018.2 1018.1 -
21/08:00pm 29.8 25.9 1.3 16 13.9 ESE 11 13 6 7 1017.9 1017.8 -
21/07:30pm 31.8 27.3 0.0 13 15.4 SE 13 17 7 9 1017.8 1017.7 -
21/07:00pm 34.4 30.9 -3.0 9 17.5 S 6 11 3 6 1017.6 1017.5 -
21/06:30pm 35.4 30.8 -3.8 8 18.3 SW 11 17 6 9 1017.6 1017.5 -
21/06:00pm 36.3 32.2 -3.2 8 18.7 WSW 9 19 5 10 1017.7 1017.6 -
21/05:30pm 36.3 31.6 -5.0 7 19.0 SW 11 20 6 11 1017.7 1017.6 -
21/05:00pm 36.0 31.9 -3.4 8 18.5 N 9 19 5 10 1017.8 1017.7 -
21/04:30pm 36.0 31.1 -3.4 8 18.6 SW 13 20 7 11 1018.0 1017.9 -
21/04:00pm 36.4 32.7 -3.1 8 18.7 SW 7 11 4 6 1018.3 1018.2 -
21/03:30pm 36.6 33.1 -3.0 8 18.9 ENE 6 13 3 7 1018.6 1018.5 -
21/03:00pm 35.7 31.4 -2.0 9 18.1 E 11 19 6 10 1019.0 1018.9 0.0
21/02:30pm 36.2 32.3 -1.7 9 18.4 NE 9 24 5 13 1019.6 1019.5 -
21/02:00pm 36.2 32.3 -1.7 9 18.3 NNW 9 22 5 12 1020.0 1019.9 -
21/01:30pm 34.8 30.9 -1.3 10 17.5 E 9 20 5 11 1020.5 1020.4 -
21/01:00pm 33.8 30.9 2.6 14 15.9 NNE 7 17 4 9 1021.1 1021.0 -
21/12:30pm 33.6 30.3 4.3 16 15.4 - 11 20 6 11 1021.3 1021.2 -
21/12:00pm 32.0 28.5 5.5 19 14.0 ENE 13 19 7 10 1021.8 1021.7 -
21/11:30am 30.4 27.1 6.4 22 12.8 NE 13 20 7 11 1022.3 1022.2 0.0
21/11:00am 28.5 26.8 9.9 31 10.4 ENE 9 13 5 7 1022.5 1022.4 0.0
21/10:30am 26.6 25.3 9.8 34 9.3 E 7 15 4 8 1022.7 1022.6 0.0
21/10:00am 24.9 22.9 8.5 35 8.8 E 9 15 5 8 1022.8 1022.7 0.0
21/09:30am 22.5 19.3 5.2 32 8.6 E 11 17 6 9 1022.9 1022.8 0.0
21/09:00am 20.1 16.5 4.9 37 7.4 E 13 17 7 9 1023.1 1023.0 0.0
21/08:30am 17.8 13.1 3.3 38 6.7 E 17 22 9 12 1023.0 1022.9 0.0

Other Formats:

Comma delimited format used in spreadsheet applications
http://www.bom.gov.au/fwo/IDN60801/IDN60801.94693.axf

JavaScript Object Notation format (JSON) in row-major order
http://www.bom.gov.au/fwo/IDN60801/IDN60801.94693.json